sensor_id;sensor_type;location;lat;lon;timestamp;P1;durP1;ratioP1;P2;durP2;ratioP2
8964;SDS011;4517;49.020;12.066;2023-09-18T00:00:50;30.47;;;27.77;;
8964;SDS011;4517;49.020;12.066;2023-09-18T00:03:20;30.00;;;27.23;;
8964;SDS011;4517;49.020;12.066;2023-09-18T00:05:49;29.00;;;26.40;;
8964;SDS011;4517;49.020;12.066;2023-09-18T00:08:15;29.87;;;27.37;;
8964;SDS011;4517;49.020;12.066;2023-09-18T00:10:42;30.33;;;27.07;;
8964;SDS011;4517;49.020;12.066;2023-09-18T00:13:08;30.33;;;27.60;;
8964;SDS011;4517;49.020;12.066;2023-09-18T00:15:34;30.43;;;27.30;;
8964;SDS011;4517;49.020;12.066;2023-09-18T00:18:02;30.63;;;27.87;;
8964;SDS011;4517;49.020;12.066;2023-09-18T00:20:28;29.20;;;26.60;;
8964;SDS011;4517;49.020;12.066;2023-09-18T00:22:54;29.30;;;26.90;;
8964;SDS011;4517;49.020;12.066;2023-09-18T00:25:20;30.00;;;27.40;;
8964;SDS011;4517;49.020;12.066;2023-09-18T00:27:46;30.10;;;27.50;;
8964;SDS011;4517;49.020;12.066;2023-09-18T00:30:12;29.93;;;27.33;;
8964;SDS011;4517;49.020;12.066;2023-09-18T00:32:38;31.63;;;28.70;;
8964;SDS011;4517;49.020;12.066;2023-09-18T00:35:04;30.77;;;28.07;;
8964;SDS011;4517;49.020;12.066;2023-09-18T00:37:30;29.27;;;26.47;;
8964;SDS011;4517;49.020;12.066;2023-09-18T00:39:56;28.13;;;25.87;;
8964;SDS011;4517;49.020;12.066;2023-09-18T00:42:22;29.33;;;26.73;;
8964;SDS011;4517;49.020;12.066;2023-09-18T00:44:48;29.60;;;26.97;;
8964;SDS011;4517;49.020;12.066;2023-09-18T00:47:15;30.43;;;27.37;;
8964;SDS011;4517;49.020;12.066;2023-09-18T00:49:41;28.10;;;25.70;;
8964;SDS011;4517;49.020;12.066;2023-09-18T00:52:09;29.00;;;26.53;;
8964;SDS011;4517;49.020;12.066;2023-09-18T00:54:35;29.67;;;27.07;;
8964;SDS011;4517;49.020;12.066;2023-09-18T00:57:02;27.73;;;25.33;;
8964;SDS011;4517;49.020;12.066;2023-09-18T00:59:28;28.67;;;26.07;;
8964;SDS011;4517;49.020;12.066;2023-09-18T01:01:54;28.10;;;25.80;;
8964;SDS011;4517;49.020;12.066;2023-09-18T01:04:21;28.20;;;25.77;;
8964;SDS011;4517;49.020;12.066;2023-09-18T01:06:47;27.83;;;25.17;;
8964;SDS011;4517;49.020;12.066;2023-09-18T01:09:14;27.40;;;25.23;;
8964;SDS011;4517;49.020;12.066;2023-09-18T01:14:19;27.97;;;25.57;;
8964;SDS011;4517;49.020;12.066;2023-09-18T01:16:58;27.87;;;25.50;;
8964;SDS011;4517;49.020;12.066;2023-09-18T01:19:45;26.17;;;23.97;;
8964;SDS011;4517;49.020;12.066;2023-09-18T01:22:15;26.60;;;24.17;;
8964;SDS011;4517;49.020;12.066;2023-09-18T01:24:41;27.23;;;24.70;;
8964;SDS011;4517;49.020;12.066;2023-09-18T01:27:08;25.90;;;23.70;;
8964;SDS011;4517;49.020;12.066;2023-09-18T01:29:34;25.57;;;23.37;;
8964;SDS011;4517;49.020;12.066;2023-09-18T01:32:00;25.30;;;23.30;;
8964;SDS011;4517;49.020;12.066;2023-09-18T01:34:29;26.90;;;24.50;;
8964;SDS011;4517;49.020;12.066;2023-09-18T01:36:56;26.43;;;24.00;;
8964;SDS011;4517;49.020;12.066;2023-09-18T01:39:23;26.77;;;24.13;;
8964;SDS011;4517;49.020;12.066;2023-09-18T01:41:52;24.60;;;22.60;;
8964;SDS011;4517;49.020;12.066;2023-09-18T01:44:18;25.83;;;23.50;;
8964;SDS011;4517;49.020;12.066;2023-09-18T01:46:44;27.50;;;24.53;;
8964;SDS011;4517;49.020;12.066;2023-09-18T01:49:10;26.03;;;23.80;;
8964;SDS011;4517;49.020;12.066;2023-09-18T01:51:36;27.10;;;24.60;;
8964;SDS011;4517;49.020;12.066;2023-09-18T01:54:02;25.33;;;23.13;;
8964;SDS011;4517;49.020;12.066;2023-09-18T01:56:28;25.23;;;23.00;;
8964;SDS011;4517;49.020;12.066;2023-09-18T01:58:54;25.33;;;22.97;;
8964;SDS011;4517;49.020;12.066;2023-09-18T02:01:20;25.73;;;23.70;;
8964;SDS011;4517;49.020;12.066;2023-09-18T02:03:46;26.17;;;23.80;;
8964;SDS011;4517;49.020;12.066;2023-09-18T02:06:12;25.30;;;23.10;;
8964;SDS011;4517;49.020;12.066;2023-09-18T02:08:38;26.50;;;24.10;;
8964;SDS011;4517;49.020;12.066;2023-09-18T02:11:04;28.50;;;23.17;;
8964;SDS011;4517;49.020;12.066;2023-09-18T02:13:30;25.03;;;22.90;;
8964;SDS011;4517;49.020;12.066;2023-09-18T02:15:56;26.00;;;23.83;;
8964;SDS011;4517;49.020;12.066;2023-09-18T02:18:22;25.77;;;23.77;;
8964;SDS011;4517;49.020;12.066;2023-09-18T02:20:48;27.43;;;25.07;;
8964;SDS011;4517;49.020;12.066;2023-09-18T02:23:17;25.23;;;23.13;;
8964;SDS011;4517;49.020;12.066;2023-09-18T02:25:44;26.57;;;23.90;;
8964;SDS011;4517;49.020;12.066;2023-09-18T02:28:10;25.30;;;23.10;;
8964;SDS011;4517;49.020;12.066;2023-09-18T02:30:36;25.17;;;23.07;;
8964;SDS011;4517;49.020;12.066;2023-09-18T02:33:02;25.80;;;23.70;;
8964;SDS011;4517;49.020;12.066;2023-09-18T02:35:28;25.90;;;23.80;;
8964;SDS011;4517;49.020;12.066;2023-09-18T02:37:55;25.47;;;23.37;;
8964;SDS011;4517;49.020;12.066;2023-09-18T02:40:21;25.77;;;23.57;;
8964;SDS011;4517;49.020;12.066;2023-09-18T02:42:47;26.20;;;24.00;;
8964;SDS011;4517;49.020;12.066;2023-09-18T02:45:13;26.37;;;23.87;;
8964;SDS011;4517;49.020;12.066;2023-09-18T02:47:39;25.73;;;23.63;;
8964;SDS011;4517;49.020;12.066;2023-09-18T02:50:06;24.97;;;23.00;;
8964;SDS011;4517;49.020;12.066;2023-09-18T02:52:32;25.33;;;23.13;;
8964;SDS011;4517;49.020;12.066;2023-09-18T02:54:58;26.40;;;24.20;;
8964;SDS011;4517;49.020;12.066;2023-09-18T02:57:24;26.37;;;24.10;;
8964;SDS011;4517;49.020;12.066;2023-09-18T02:59:50;26.60;;;24.20;;
8964;SDS011;4517;49.020;12.066;2023-09-18T03:02:16;25.40;;;23.40;;
8964;SDS011;4517;49.020;12.066;2023-09-18T03:04:42;26.40;;;24.30;;
8964;SDS011;4517;49.020;12.066;2023-09-18T03:07:08;26.60;;;24.50;;
8964;SDS011;4517;49.020;12.066;2023-09-18T03:09:34;28.70;;;25.70;;
8964;SDS011;4517;49.020;12.066;2023-09-18T03:12:00;26.30;;;24.10;;
8964;SDS011;4517;49.020;12.066;2023-09-18T03:14:27;26.83;;;24.23;;
8964;SDS011;4517;49.020;12.066;2023-09-18T03:16:53;27.63;;;25.17;;
8964;SDS011;4517;49.020;12.066;2023-09-18T03:19:19;27.23;;;24.83;;
8964;SDS011;4517;49.020;12.066;2023-09-18T03:21:47;27.70;;;25.40;;
8964;SDS011;4517;49.020;12.066;2023-09-18T03:24:13;27.60;;;25.20;;
8964;SDS011;4517;49.020;12.066;2023-09-18T03:26:39;26.67;;;24.17;;
8964;SDS011;4517;49.020;12.066;2023-09-18T03:29:05;27.50;;;25.20;;
8964;SDS011;4517;49.020;12.066;2023-09-18T03:31:30;28.60;;;25.77;;
8964;SDS011;4517;49.020;12.066;2023-09-18T03:33:56;26.83;;;24.43;;
8964;SDS011;4517;49.020;12.066;2023-09-18T03:36:22;26.87;;;24.23;;
8964;SDS011;4517;49.020;12.066;2023-09-18T03:38:49;27.60;;;25.07;;
8964;SDS011;4517;49.020;12.066;2023-09-18T03:41:15;27.37;;;25.07;;
8964;SDS011;4517;49.020;12.066;2023-09-18T03:43:41;25.97;;;23.77;;
8964;SDS011;4517;49.020;12.066;2023-09-18T03:46:07;28.07;;;25.67;;
8964;SDS011;4517;49.020;12.066;2023-09-18T03:48:33;26.83;;;24.63;;
8964;SDS011;4517;49.020;12.066;2023-09-18T03:51:05;26.30;;;24.20;;
8964;SDS011;4517;49.020;12.066;2023-09-18T03:53:33;26.40;;;24.10;;
8964;SDS011;4517;49.020;12.066;2023-09-18T03:55:59;28.10;;;25.20;;
8964;SDS011;4517;49.020;12.066;2023-09-18T03:58:25;25.80;;;23.50;;
8964;SDS011;4517;49.020;12.066;2023-09-18T04:00:51;25.97;;;23.57;;
8964;SDS011;4517;49.020;12.066;2023-09-18T04:03:17;27.70;;;25.30;;
8964;SDS011;4517;49.020;12.066;2023-09-18T04:05:43;27.53;;;25.20;;
8964;SDS011;4517;49.020;12.066;2023-09-18T04:08:10;28.87;;;25.97;;
8964;SDS011;4517;49.020;12.066;2023-09-18T04:10:36;28.07;;;25.53;;
8964;SDS011;4517;49.020;12.066;2023-09-18T04:13:02;26.87;;;24.33;;
8964;SDS011;4517;49.020;12.066;2023-09-18T04:15:29;25.80;;;23.70;;
8964;SDS011;4517;49.020;12.066;2023-09-18T04:17:55;25.27;;;23.07;;
8964;SDS011;4517;49.020;12.066;2023-09-18T04:20:21;27.60;;;24.13;;
8964;SDS011;4517;49.020;12.066;2023-09-18T04:23:17;26.70;;;24.10;;
8964;SDS011;4517;49.020;12.066;2023-09-18T04:25:36;25.60;;;23.50;;
8964;SDS011;4517;49.020;12.066;2023-09-18T04:28:02;26.27;;;23.97;;
8964;SDS011;4517;49.020;12.066;2023-09-18T04:30:28;26.50;;;24.30;;
8964;SDS011;4517;49.020;12.066;2023-09-18T04:32:54;26.53;;;24.33;;
8964;SDS011;4517;49.020;12.066;2023-09-18T04:35:20;26.40;;;24.20;;
8964;SDS011;4517;49.020;12.066;2023-09-18T04:37:50;25.47;;;23.17;;
8964;SDS011;4517;49.020;12.066;2023-09-18T04:40:16;26.60;;;24.40;;
8964;SDS011;4517;49.020;12.066;2023-09-18T04:42:42;24.57;;;22.57;;
8964;SDS011;4517;49.020;12.066;2023-09-18T04:45:08;25.17;;;23.10;;
8964;SDS011;4517;49.020;12.066;2023-09-18T04:47:34;24.63;;;22.53;;
8964;SDS011;4517;49.020;12.066;2023-09-18T04:50:00;25.00;;;22.90;;
8964;SDS011;4517;49.020;12.066;2023-09-18T04:52:31;26.00;;;23.27;;
8964;SDS011;4517;49.020;12.066;2023-09-18T04:54:57;32.40;;;29.80;;
8964;SDS011;4517;49.020;12.066;2023-09-18T04:57:23;25.27;;;23.17;;
8964;SDS011;4517;49.020;12.066;2023-09-18T04:59:49;25.83;;;23.43;;
8964;SDS011;4517;49.020;12.066;2023-09-18T05:02:15;26.30;;;24.10;;
8964;SDS011;4517;49.020;12.066;2023-09-18T05:04:41;25.27;;;23.03;;
8964;SDS011;4517;49.020;12.066;2023-09-18T05:07:07;23.80;;;21.90;;
8964;SDS011;4517;49.020;12.066;2023-09-18T05:09:33;24.37;;;22.43;;
8964;SDS011;4517;49.020;12.066;2023-09-18T05:11:59;24.57;;;22.40;;
8964;SDS011;4517;49.020;12.066;2023-09-18T05:14:26;24.77;;;22.70;;
8964;SDS011;4517;49.020;12.066;2023-09-18T05:16:52;24.00;;;22.03;;
8964;SDS011;4517;49.020;12.066;2023-09-18T05:19:18;25.23;;;23.23;;
8964;SDS011;4517;49.020;12.066;2023-09-18T05:21:44;23.57;;;21.47;;
8964;SDS011;4517;49.020;12.066;2023-09-18T05:24:11;25.00;;;22.90;;
8964;SDS011;4517;49.020;12.066;2023-09-18T05:26:37;25.57;;;23.30;;
8964;SDS011;4517;49.020;12.066;2023-09-18T05:29:03;26.33;;;23.97;;
8964;SDS011;4517;49.020;12.066;2023-09-18T05:31:29;24.93;;;22.77;;
8964;SDS011;4517;49.020;12.066;2023-09-18T05:33:55;25.07;;;22.67;;
8964;SDS011;4517;49.020;12.066;2023-09-18T05:36:21;25.87;;;23.40;;
8964;SDS011;4517;49.020;12.066;2023-09-18T05:38:47;28.27;;;25.87;;
8964;SDS011;4517;49.020;12.066;2023-09-18T05:41:13;25.70;;;23.50;;
8964;SDS011;4517;49.020;12.066;2023-09-18T05:43:39;26.37;;;23.87;;
8964;SDS011;4517;49.020;12.066;2023-09-18T05:46:05;24.83;;;22.60;;
8964;SDS011;4517;49.020;12.066;2023-09-18T05:48:31;24.50;;;22.40;;
8964;SDS011;4517;49.020;12.066;2023-09-18T05:50:57;23.03;;;21.17;;
8964;SDS011;4517;49.020;12.066;2023-09-18T05:53:24;23.93;;;21.57;;
8964;SDS011;4517;49.020;12.066;2023-09-18T05:55:50;24.57;;;22.30;;
8964;SDS011;4517;49.020;12.066;2023-09-18T05:58:16;23.60;;;21.30;;
8964;SDS011;4517;49.020;12.066;2023-09-18T06:00:44;24.20;;;21.90;;
8964;SDS011;4517;49.020;12.066;2023-09-18T06:03:11;24.53;;;22.07;;
8964;SDS011;4517;49.020;12.066;2023-09-18T06:05:37;30.83;;;28.20;;
8964;SDS011;4517;49.020;12.066;2023-09-18T06:08:03;24.53;;;22.60;;
8964;SDS011;4517;49.020;12.066;2023-09-18T06:10:30;25.03;;;22.93;;
8964;SDS011;4517;49.020;12.066;2023-09-18T06:12:56;23.63;;;21.67;;
8964;SDS011;4517;49.020;12.066;2023-09-18T06:15:23;24.10;;;22.10;;
8964;SDS011;4517;49.020;12.066;2023-09-18T06:17:49;26.13;;;23.70;;
8964;SDS011;4517;49.020;12.066;2023-09-18T06:20:15;25.37;;;23.07;;
8964;SDS011;4517;49.020;12.066;2023-09-18T06:22:42;25.10;;;22.40;;
8964;SDS011;4517;49.020;12.066;2023-09-18T06:25:08;24.53;;;22.53;;
8964;SDS011;4517;49.020;12.066;2023-09-18T06:27:35;24.60;;;22.60;;
8964;SDS011;4517;49.020;12.066;2023-09-18T06:30:02;25.30;;;23.00;;
8964;SDS011;4517;49.020;12.066;2023-09-18T06:32:28;23.70;;;21.90;;
8964;SDS011;4517;49.020;12.066;2023-09-18T06:34:54;23.27;;;21.47;;
8964;SDS011;4517;49.020;12.066;2023-09-18T06:37:22;23.40;;;21.50;;
8964;SDS011;4517;49.020;12.066;2023-09-18T06:39:48;23.53;;;21.23;;
8964;SDS011;4517;49.020;12.066;2023-09-18T06:42:14;23.97;;;21.97;;
8964;SDS011;4517;49.020;12.066;2023-09-18T06:44:40;25.10;;;22.77;;
8964;SDS011;4517;49.020;12.066;2023-09-18T06:47:06;24.33;;;21.90;;
8964;SDS011;4517;49.020;12.066;2023-09-18T06:49:32;23.33;;;21.27;;
8964;SDS011;4517;49.020;12.066;2023-09-18T06:51:58;23.90;;;21.87;;
8964;SDS011;4517;49.020;12.066;2023-09-18T06:54:24;23.23;;;21.33;;
8964;SDS011;4517;49.020;12.066;2023-09-18T06:56:50;23.07;;;21.30;;
8964;SDS011;4517;49.020;12.066;2023-09-18T06:59:16;22.07;;;20.27;;
8964;SDS011;4517;49.020;12.066;2023-09-18T07:01:42;23.57;;;21.67;;
8964;SDS011;4517;49.020;12.066;2023-09-18T07:04:08;22.87;;;21.00;;
8964;SDS011;4517;49.020;12.066;2023-09-18T07:06:34;24.67;;;22.77;;
8964;SDS011;4517;49.020;12.066;2023-09-18T07:09:01;23.53;;;21.70;;
8964;SDS011;4517;49.020;12.066;2023-09-18T07:11:29;24.50;;;22.50;;
8964;SDS011;4517;49.020;12.066;2023-09-18T07:13:55;31.03;;;28.37;;
8964;SDS011;4517;49.020;12.066;2023-09-18T07:16:21;24.53;;;22.73;;
8964;SDS011;4517;49.020;12.066;2023-09-18T07:18:47;24.40;;;22.33;;
8964;SDS011;4517;49.020;12.066;2023-09-18T07:21:13;23.03;;;21.23;;
8964;SDS011;4517;49.020;12.066;2023-09-18T07:23:40;22.83;;;21.13;;
8964;SDS011;4517;49.020;12.066;2023-09-18T07:26:06;23.17;;;21.20;;
8964;SDS011;4517;49.020;12.066;2023-09-18T07:28:32;29.53;;;27.43;;
8964;SDS011;4517;49.020;12.066;2023-09-18T07:31:04;23.43;;;21.63;;
8964;SDS011;4517;49.020;12.066;2023-09-18T07:33:30;23.40;;;21.30;;
8964;SDS011;4517;49.020;12.066;2023-09-18T07:35:56;23.70;;;21.83;;
8964;SDS011;4517;49.020;12.066;2023-09-18T07:38:22;25.00;;;23.23;;
8964;SDS011;4517;49.020;12.066;2023-09-18T07:40:49;22.63;;;20.93;;
8964;SDS011;4517;49.020;12.066;2023-09-18T07:43:15;25.10;;;23.17;;
8964;SDS011;4517;49.020;12.066;2023-09-18T07:45:41;23.37;;;21.57;;
8964;SDS011;4517;49.020;12.066;2023-09-18T07:48:07;25.30;;;23.03;;
8964;SDS011;4517;49.020;12.066;2023-09-18T07:50:36;23.07;;;20.93;;
8964;SDS011;4517;49.020;12.066;2023-09-18T07:53:02;23.37;;;21.17;;
8964;SDS011;4517;49.020;12.066;2023-09-18T07:55:28;23.23;;;20.80;;
8964;SDS011;4517;49.020;12.066;2023-09-18T07:57:55;23.50;;;21.70;;
8964;SDS011;4517;49.020;12.066;2023-09-18T08:00:21;23.53;;;21.53;;
8964;SDS011;4517;49.020;12.066;2023-09-18T08:02:47;21.67;;;20.10;;
8964;SDS011;4517;49.020;12.066;2023-09-18T08:05:15;22.37;;;20.63;;
8964;SDS011;4517;49.020;12.066;2023-09-18T08:07:41;22.40;;;20.50;;
8964;SDS011;4517;49.020;12.066;2023-09-18T08:10:07;21.27;;;19.63;;
8964;SDS011;4517;49.020;12.066;2023-09-18T08:12:33;23.97;;;22.07;;
8964;SDS011;4517;49.020;12.066;2023-09-18T08:14:59;23.90;;;22.00;;
8964;SDS011;4517;49.020;12.066;2023-09-18T08:17:27;22.40;;;20.47;;
8964;SDS011;4517;49.020;12.066;2023-09-18T08:19:53;21.37;;;19.80;;
8964;SDS011;4517;49.020;12.066;2023-09-18T08:22:20;23.10;;;21.17;;
8964;SDS011;4517;49.020;12.066;2023-09-18T08:24:46;24.67;;;22.10;;
8964;SDS011;4517;49.020;12.066;2023-09-18T08:27:13;22.37;;;20.70;;
8964;SDS011;4517;49.020;12.066;2023-09-18T08:29:42;22.93;;;21.13;;
8964;SDS011;4517;49.020;12.066;2023-09-18T08:32:08;22.70;;;20.90;;
8964;SDS011;4517;49.020;12.066;2023-09-18T08:34:34;23.07;;;21.10;;
8964;SDS011;4517;49.020;12.066;2023-09-18T08:37:00;25.50;;;23.63;;
8964;SDS011;4517;49.020;12.066;2023-09-18T08:39:26;23.27;;;21.43;;
8964;SDS011;4517;49.020;12.066;2023-09-18T08:41:53;21.43;;;19.93;;
8964;SDS011;4517;49.020;12.066;2023-09-18T08:44:20;41.07;;;22.53;;
8964;SDS011;4517;49.020;12.066;2023-09-18T08:46:47;24.87;;;21.10;;
8964;SDS011;4517;49.020;12.066;2023-09-18T08:49:13;23.27;;;21.37;;
8964;SDS011;4517;49.020;12.066;2023-09-18T08:51:40;24.60;;;22.10;;
8964;SDS011;4517;49.020;12.066;2023-09-18T08:54:08;21.50;;;19.77;;
8964;SDS011;4517;49.020;12.066;2023-09-18T08:56:35;41.53;;;23.73;;
8964;SDS011;4517;49.020;12.066;2023-09-18T08:59:01;22.30;;;20.30;;
8964;SDS011;4517;49.020;12.066;2023-09-18T09:01:27;22.83;;;20.90;;
8964;SDS011;4517;49.020;12.066;2023-09-18T09:03:53;22.57;;;20.60;;
8964;SDS011;4517;49.020;12.066;2023-09-18T09:06:20;22.57;;;20.43;;
8964;SDS011;4517;49.020;12.066;2023-09-18T09:08:46;20.90;;;19.30;;
8964;SDS011;4517;49.020;12.066;2023-09-18T09:11:12;22.27;;;20.20;;
8964;SDS011;4517;49.020;12.066;2023-09-18T09:13:38;23.00;;;19.77;;
8964;SDS011;4517;49.020;12.066;2023-09-18T09:16:04;23.70;;;21.43;;
8964;SDS011;4517;49.020;12.066;2023-09-18T09:18:29;48.30;;;23.70;;
8964;SDS011;4517;49.020;12.066;2023-09-18T09:21:02;23.00;;;21.13;;
8964;SDS011;4517;49.020;12.066;2023-09-18T09:23:44;21.40;;;19.70;;
8964;SDS011;4517;49.020;12.066;2023-09-18T09:26:15;22.33;;;20.43;;
8964;SDS011;4517;49.020;12.066;2023-09-18T09:28:42;22.20;;;20.53;;
8964;SDS011;4517;49.020;12.066;2023-09-18T09:31:08;22.93;;;21.03;;
8964;SDS011;4517;49.020;12.066;2023-09-18T09:33:35;25.53;;;21.30;;
8964;SDS011;4517;49.020;12.066;2023-09-18T09:36:04;23.50;;;21.50;;
8964;SDS011;4517;49.020;12.066;2023-09-18T09:38:31;22.83;;;21.00;;
8964;SDS011;4517;49.020;12.066;2023-09-18T09:40:58;22.37;;;20.77;;
8964;SDS011;4517;49.020;12.066;2023-09-18T09:43:25;22.40;;;20.60;;
8964;SDS011;4517;49.020;12.066;2023-09-18T09:45:58;32.43;;;21.03;;
8964;SDS011;4517;49.020;12.066;2023-09-18T09:48:24;23.43;;;21.30;;
8964;SDS011;4517;49.020;12.066;2023-09-18T09:50:50;24.10;;;21.63;;
8964;SDS011;4517;49.020;12.066;2023-09-18T09:53:17;23.00;;;21.30;;
8964;SDS011;4517;49.020;12.066;2023-09-18T09:55:43;36.27;;;21.60;;
8964;SDS011;4517;49.020;12.066;2023-09-18T09:58:10;23.50;;;21.40;;
8964;SDS011;4517;49.020;12.066;2023-09-18T10:03:14;22.20;;;20.40;;
8964;SDS011;4517;49.020;12.066;2023-09-18T10:05:42;22.77;;;20.90;;
8964;SDS011;4517;49.020;12.066;2023-09-18T10:10:38;24.13;;;21.80;;
8964;SDS011;4517;49.020;12.066;2023-09-18T10:16:04;23.00;;;21.20;;
8964;SDS011;4517;49.020;12.066;2023-09-18T10:21:00;24.57;;;22.50;;
8964;SDS011;4517;49.020;12.066;2023-09-18T10:23:34;23.37;;;21.27;;
8964;SDS011;4517;49.020;12.066;2023-09-18T10:26:04;22.70;;;20.90;;
8964;SDS011;4517;49.020;12.066;2023-09-18T10:28:30;23.27;;;20.97;;
8964;SDS011;4517;49.020;12.066;2023-09-18T10:30:57;23.20;;;21.30;;
8964;SDS011;4517;49.020;12.066;2023-09-18T10:33:24;22.60;;;20.70;;
8964;SDS011;4517;49.020;12.066;2023-09-18T10:35:51;22.57;;;20.80;;
8964;SDS011;4517;49.020;12.066;2023-09-18T10:38:18;25.07;;;20.70;;
8964;SDS011;4517;49.020;12.066;2023-09-18T10:40:45;22.87;;;20.60;;
8964;SDS011;4517;49.020;12.066;2023-09-18T10:43:12;22.00;;;20.10;;
8964;SDS011;4517;49.020;12.066;2023-09-18T10:45:41;22.67;;;20.87;;
8964;SDS011;4517;49.020;12.066;2023-09-18T10:48:09;21.57;;;19.77;;
8964;SDS011;4517;49.020;12.066;2023-09-18T10:50:35;23.17;;;21.23;;
8964;SDS011;4517;49.020;12.066;2023-09-18T10:53:02;20.93;;;19.10;;
8964;SDS011;4517;49.020;12.066;2023-09-18T10:55:27;25.87;;;21.37;;
8964;SDS011;4517;49.020;12.066;2023-09-18T10:57:54;23.17;;;20.20;;
8964;SDS011;4517;49.020;12.066;2023-09-18T11:00:21;24.83;;;20.90;;
8964;SDS011;4517;49.020;12.066;2023-09-18T11:02:53;22.63;;;20.80;;
8964;SDS011;4517;49.020;12.066;2023-09-18T11:05:30;22.63;;;20.40;;
8964;SDS011;4517;49.020;12.066;2023-09-18T11:10:54;21.30;;;19.20;;
8964;SDS011;4517;49.020;12.066;2023-09-18T11:13:28;23.73;;;21.20;;
8964;SDS011;4517;49.020;12.066;2023-09-18T11:15:58;22.93;;;20.83;;
8964;SDS011;4517;49.020;12.066;2023-09-18T11:18:25;22.43;;;20.10;;
8964;SDS011;4517;49.020;12.066;2023-09-18T11:21:10;24.47;;;20.83;;
8964;SDS011;4517;49.020;12.066;2023-09-18T11:23:37;23.97;;;21.80;;
8964;SDS011;4517;49.020;12.066;2023-09-18T11:26:07;23.60;;;19.80;;
8964;SDS011;4517;49.020;12.066;2023-09-18T11:28:33;23.40;;;21.27;;
8964;SDS011;4517;49.020;12.066;2023-09-18T11:30:59;23.07;;;20.67;;
8964;SDS011;4517;49.020;12.066;2023-09-18T11:33:39;25.40;;;19.37;;
8964;SDS011;4517;49.020;12.066;2023-09-18T11:36:11;20.70;;;18.70;;
8964;SDS011;4517;49.020;12.066;2023-09-18T11:38:52;22.20;;;18.63;;
8964;SDS011;4517;49.020;12.066;2023-09-18T11:43:50;20.50;;;18.90;;
8964;SDS011;4517;49.020;12.066;2023-09-18T11:46:19;21.77;;;19.10;;
8964;SDS011;4517;49.020;12.066;2023-09-18T11:48:48;20.97;;;19.17;;
8964;SDS011;4517;49.020;12.066;2023-09-18T11:51:21;21.67;;;19.77;;
8964;SDS011;4517;49.020;12.066;2023-09-18T11:53:49;29.23;;;19.10;;
8964;SDS011;4517;49.020;12.066;2023-09-18T11:56:15;20.50;;;18.80;;
8964;SDS011;4517;49.020;12.066;2023-09-18T11:58:46;20.77;;;18.70;;
8964;SDS011;4517;49.020;12.066;2023-09-18T12:01:12;21.50;;;19.60;;
8964;SDS011;4517;49.020;12.066;2023-09-18T12:03:40;22.40;;;20.40;;
8964;SDS011;4517;49.020;12.066;2023-09-18T12:06:06;22.70;;;20.43;;
8964;SDS011;4517;49.020;12.066;2023-09-18T12:08:34;23.03;;;20.80;;
8964;SDS011;4517;49.020;12.066;2023-09-18T12:11:03;23.23;;;21.00;;
8964;SDS011;4517;49.020;12.066;2023-09-18T12:13:30;22.20;;;20.10;;
8964;SDS011;4517;49.020;12.066;2023-09-18T12:15:59;25.93;;;23.93;;
8964;SDS011;4517;49.020;12.066;2023-09-18T12:18:26;20.40;;;18.50;;
8964;SDS011;4517;49.020;12.066;2023-09-18T12:20:56;22.10;;;18.40;;
8964;SDS011;4517;49.020;12.066;2023-09-18T12:23:24;20.67;;;18.80;;
8964;SDS011;4517;49.020;12.066;2023-09-18T12:25:50;21.13;;;19.00;;
8964;SDS011;4517;49.020;12.066;2023-09-18T12:28:22;21.63;;;19.87;;
8964;SDS011;4517;49.020;12.066;2023-09-18T12:30:48;19.83;;;17.90;;
8964;SDS011;4517;49.020;12.066;2023-09-18T12:33:17;19.70;;;18.10;;
8964;SDS011;4517;49.020;12.066;2023-09-18T12:35:44;19.17;;;17.60;;
8964;SDS011;4517;49.020;12.066;2023-09-18T12:38:15;18.03;;;16.83;;
8964;SDS011;4517;49.020;12.066;2023-09-18T12:40:43;18.27;;;16.97;;
8964;SDS011;4517;49.020;12.066;2023-09-18T12:43:11;23.00;;;21.03;;
8964;SDS011;4517;49.020;12.066;2023-09-18T12:45:37;19.83;;;16.70;;
8964;SDS011;4517;49.020;12.066;2023-09-18T12:48:03;18.80;;;17.10;;
8964;SDS011;4517;49.020;12.066;2023-09-18T12:50:29;18.30;;;16.80;;
8964;SDS011;4517;49.020;12.066;2023-09-18T12:53:29;21.93;;;17.40;;
8964;SDS011;4517;49.020;12.066;2023-09-18T12:55:48;17.40;;;16.10;;
8964;SDS011;4517;49.020;12.066;2023-09-18T12:58:18;17.30;;;15.80;;
8964;SDS011;4517;49.020;12.066;2023-09-18T13:00:45;16.90;;;15.57;;
8964;SDS011;4517;49.020;12.066;2023-09-18T13:03:12;17.10;;;15.90;;
8964;SDS011;4517;49.020;12.066;2023-09-18T13:05:39;18.17;;;16.67;;
8964;SDS011;4517;49.020;12.066;2023-09-18T13:08:05;16.80;;;15.37;;
8964;SDS011;4517;49.020;12.066;2023-09-18T13:10:41;17.30;;;15.47;;
8964;SDS011;4517;49.020;12.066;2023-09-18T13:13:12;15.80;;;14.60;;
8964;SDS011;4517;49.020;12.066;2023-09-18T13:15:41;15.93;;;14.83;;
8964;SDS011;4517;49.020;12.066;2023-09-18T13:18:10;16.60;;;15.50;;
8964;SDS011;4517;49.020;12.066;2023-09-18T13:20:36;16.67;;;15.40;;
8964;SDS011;4517;49.020;12.066;2023-09-18T13:23:02;16.57;;;15.47;;
8964;SDS011;4517;49.020;12.066;2023-09-18T13:25:29;20.47;;;15.70;;
8964;SDS011;4517;49.020;12.066;2023-09-18T13:27:59;18.07;;;16.50;;
8964;SDS011;4517;49.020;12.066;2023-09-18T13:30:25;16.40;;;15.30;;
8964;SDS011;4517;49.020;12.066;2023-09-18T13:33:00;16.30;;;15.07;;
8964;SDS011;4517;49.020;12.066;2023-09-18T13:35:26;15.70;;;14.60;;
8964;SDS011;4517;49.020;12.066;2023-09-18T13:37:52;16.53;;;15.20;;
8964;SDS011;4517;49.020;12.066;2023-09-18T13:40:18;26.97;;;25.43;;
8964;SDS011;4517;49.020;12.066;2023-09-18T13:42:44;16.93;;;15.47;;
8964;SDS011;4517;49.020;12.066;2023-09-18T13:45:10;17.13;;;15.70;;
8964;SDS011;4517;49.020;12.066;2023-09-18T13:47:36;17.20;;;16.10;;
8964;SDS011;4517;49.020;12.066;2023-09-18T13:50:03;17.10;;;15.90;;
8964;SDS011;4517;49.020;12.066;2023-09-18T13:52:29;17.80;;;15.90;;
8964;SDS011;4517;49.020;12.066;2023-09-18T13:54:56;17.37;;;16.07;;
8964;SDS011;4517;49.020;12.066;2023-09-18T13:57:22;16.13;;;15.03;;
8964;SDS011;4517;49.020;12.066;2023-09-18T13:59:49;16.80;;;15.50;;
8964;SDS011;4517;49.020;12.066;2023-09-18T14:02:15;16.00;;;14.40;;
8964;SDS011;4517;49.020;12.066;2023-09-18T14:04:41;15.93;;;14.77;;
8964;SDS011;4517;49.020;12.066;2023-09-18T14:07:07;16.10;;;15.00;;
8964;SDS011;4517;49.020;12.066;2023-09-18T14:09:34;16.37;;;14.97;;
8964;SDS011;4517;49.020;12.066;2023-09-18T14:12:00;17.30;;;15.80;;
8964;SDS011;4517;49.020;12.066;2023-09-18T14:14:27;17.40;;;15.77;;
8964;SDS011;4517;49.020;12.066;2023-09-18T14:16:54;17.50;;;16.27;;
8964;SDS011;4517;49.020;12.066;2023-09-18T14:19:20;17.63;;;16.33;;
8964;SDS011;4517;49.020;12.066;2023-09-18T14:21:46;16.93;;;15.63;;
8964;SDS011;4517;49.020;12.066;2023-09-18T14:24:14;20.10;;;18.50;;
8964;SDS011;4517;49.020;12.066;2023-09-18T14:26:40;25.57;;;21.30;;
8964;SDS011;4517;49.020;12.066;2023-09-18T14:29:09;23.97;;;22.07;;
8964;SDS011;4517;49.020;12.066;2023-09-18T14:31:36;26.57;;;24.57;;
8964;SDS011;4517;49.020;12.066;2023-09-18T14:34:02;26.40;;;24.40;;
8964;SDS011;4517;49.020;12.066;2023-09-18T14:36:29;24.77;;;22.80;;
8964;SDS011;4517;49.020;12.066;2023-09-18T14:38:56;25.40;;;23.70;;
8964;SDS011;4517;49.020;12.066;2023-09-18T14:41:23;25.07;;;23.30;;
8964;SDS011;4517;49.020;12.066;2023-09-18T14:43:50;22.30;;;20.80;;
8964;SDS011;4517;49.020;12.066;2023-09-18T14:46:16;22.70;;;20.70;;
8964;SDS011;4517;49.020;12.066;2023-09-18T14:48:42;23.37;;;21.57;;
8964;SDS011;4517;49.020;12.066;2023-09-18T14:51:08;31.30;;;28.90;;